Time;durP1;ratioP1;P1;durP2;ratioP2;P2;SDS_P1;SDS_P2;PMS_P1;PMS_P2;Temp;Humidity;BMP_temperature;BMP_pressure;BME280_temperature;BME280_humidity;BME280_pressure;Samples;Min_cycle;Max_cycle;Signal;HPM_P1;HPM_P2
2023/10/13 00:00:42;;;;;;;17.50;11.18;;;16.40;99.90;;;;;;4978979;28;20065;-41
2023/10/13 00:03:16;;;;;;;19.27;10.52;;;16.40;99.90;;;;;;4990817;28;20062;-39
2023/10/13 00:05:43;;;;;;;18.70;10.70;;;16.40;99.90;;;;;;4989493;28;20060;-40
2023/10/13 00:08:13;;;;;;;17.15;9.45;;;16.40;99.90;;;;;;4994323;28;20070;-41
2023/10/13 00:10:42;;;;;;;16.15;10.13;;;16.40;99.90;;;;;;4975722;28;20335;-40
2023/10/13 00:13:15;;;;;;;19.38;9.88;;;16.40;99.90;;;;;;4995409;28;20051;-41
2023/10/13 00:15:56;;;;;;;18.77;10.70;;;16.40;99.90;;;;;;4990155;28;20051;-42
2023/10/13 00:18:33;;;;;;;20.65;9.82;;;16.50;99.90;;;;;;4995213;28;20552;-40
2023/10/13 00:21:19;;;;;;;18.60;10.20;;;16.50;99.90;;;;;;4991657;28;20406;-40
2023/10/13 00:23:53;;;;;;;22.50;11.40;;;16.50;99.90;;;;;;4989781;28;20050;-41
2023/10/13 00:26:28;;;;;;;20.23;10.73;;;16.50;99.90;;;;;;4979665;28;20054;-41
2023/10/13 00:31:42;;;;;;;17.58;10.55;;;16.50;99.90;;;;;;4978732;28;20046;-39
2023/10/13 00:39:36;;;;;;;15.63;10.38;;;16.40;99.90;;;;;;4963937;28;20054;-41
2023/10/13 00:42:07;;;;;;;16.15;10.25;;;16.40;99.90;;;;;;4988771;28;20138;-41
2023/10/13 00:44:41;;;;;;;19.83;10.48;;;16.40;99.90;;;;;;4987051;28;20427;-38
2023/10/13 00:47:10;;;;;;;21.05;11.32;;;16.40;99.90;;;;;;4979438;28;20047;-40
2023/10/13 00:49:39;;;;;;;23.30;10.80;;;16.40;99.90;;;;;;4982489;28;20050;-41
2023/10/13 00:52:09;;;;;;;23.08;10.32;;;16.40;99.90;;;;;;4977275;28;20047;-40
2023/10/13 00:54:38;;;;;;;19.67;10.32;;;16.40;99.90;;;;;;4980493;28;20030;-39
2023/10/13 00:57:26;;;;;;;20.38;11.80;;;16.40;99.90;;;;;;4966856;28;20051;-41
2023/10/13 00:59:55;;;;;;;16.40;10.02;;;16.40;99.90;;;;;;4968327;28;20082;-39
2023/10/13 01:02:37;;;;;;;19.23;10.73;;;16.40;99.90;;;;;;4987190;28;20420;-38
2023/10/13 01:05:19;;;;;;;19.80;9.70;;;16.40;99.90;;;;;;4960732;28;20050;-40
2023/10/13 01:07:54;;;;;;;16.58;10.32;;;16.40;99.90;;;;;;4980184;28;20058;-39
2023/10/13 01:10:32;;;;;;;16.08;9.85;;;16.30;99.90;;;;;;4978844;28;20074;-39
2023/10/13 01:13:02;;;;;;;20.20;9.82;;;16.30;99.90;;;;;;4961565;28;20372;-40
2023/10/13 01:15:32;;;;;;;19.90;10.70;;;16.30;99.90;;;;;;4981509;28;20045;-41
2023/10/13 01:18:11;;;;;;;18.55;10.27;;;16.30;99.90;;;;;;4977095;28;20054;-40
2023/10/13 01:20:45;;;;;;;19.00;11.45;;;16.30;99.90;;;;;;4979869;28;20065;-40
2023/10/13 01:23:18;;;;;;;21.50;11.50;;;16.30;99.90;;;;;;4980938;28;20042;-40
2023/10/13 01:25:48;;;;;;;25.48;11.75;;;16.20;99.90;;;;;;4980951;28;20129;-38
2023/10/13 01:28:18;;;;;;;20.00;12.05;;;16.20;99.90;;;;;;4990984;28;20057;-41
2023/10/13 01:30:52;;;;;;;17.88;11.35;;;16.20;99.90;;;;;;4973715;28;20046;-41
2023/10/13 01:33:26;;;;;;;17.98;11.60;;;16.20;99.90;;;;;;4992612;28;20205;-41
2023/10/13 01:35:56;;;;;;;16.60;11.55;;;16.20;99.90;;;;;;4965762;28;20109;-41
2023/10/13 01:38:28;;;;;;;25.73;13.00;;;16.20;99.90;;;;;;4980966;28;20050;-41
2023/10/13 01:40:56;;;;;;;18.00;11.10;;;16.10;99.90;;;;;;4982010;28;20109;-39
2023/10/13 01:43:25;;;;;;;21.23;12.60;;;16.10;99.90;;;;;;4961634;28;20046;-39
2023/10/13 01:45:53;;;;;;;18.52;10.52;;;16.10;99.90;;;;;;4979553;28;20157;-39
2023/10/13 01:48:21;;;;;;;21.05;11.43;;;16.10;99.90;;;;;;4983538;28;20053;-39
2023/10/13 01:50:55;;;;;;;18.23;10.75;;;16.10;99.90;;;;;;4975517;28;20054;-41
2023/10/13 01:53:23;;;;;;;18.23;10.35;;;16.10;99.90;;;;;;4982268;28;20050;-40
2023/10/13 01:55:50;;;;;;;16.48;10.75;;;16.20;99.90;;;;;;4978549;28;20130;-40
2023/10/13 01:58:22;;;;;;;18.77;11.07;;;16.20;99.90;;;;;;4964740;28;20302;-40
2023/10/13 02:00:50;;;;;;;18.92;11.32;;;16.20;99.90;;;;;;4962082;28;20511;-39
2023/10/13 02:03:18;;;;;;;19.92;11.20;;;16.20;99.90;;;;;;4985367;28;20058;-41
2023/10/13 02:05:48;;;;;;;19.90;11.82;;;16.10;99.90;;;;;;4979906;28;20051;-38
2023/10/13 02:08:25;;;;;;;20.55;10.95;;;16.20;99.90;;;;;;4961700;28;20372;-40
2023/10/13 02:10:55;;;;;;;20.92;11.70;;;16.10;99.90;;;;;;4982628;28;20491;-40
2023/10/13 02:13:25;;;;;;;18.88;11.38;;;16.10;99.90;;;;;;4985083;28;20054;-41
2023/10/13 02:16:03;;;;;;;20.55;11.95;;;16.10;99.90;;;;;;4968390;28;20047;-41
2023/10/13 02:18:41;;;;;;;19.60;11.27;;;16.10;99.90;;;;;;4985675;28;20073;-41
2023/10/13 02:21:14;;;;;;;19.63;11.82;;;16.10;99.90;;;;;;4965250;28;20047;-39
2023/10/13 02:23:45;;;;;;;23.70;11.88;;;16.00;99.90;;;;;;4980131;28;20495;-40
2023/10/13 02:26:29;;;;;;;22.38;12.18;;;16.00;99.90;;;;;;4959506;28;20423;-41
2023/10/13 02:29:07;;;;;;;25.92;12.63;;;16.00;99.90;;;;;;4960446;28;20087;-41
2023/10/13 02:31:36;;;;;;;24.25;12.50;;;16.00;99.90;;;;;;4975325;28;20043;-40
2023/10/13 02:34:12;;;;;;;20.00;11.32;;;16.10;99.90;;;;;;4953854;28;20081;-41
2023/10/13 02:36:49;;;;;;;20.58;11.88;;;16.10;99.90;;;;;;4981549;28;20050;-41
2023/10/13 02:39:24;;;;;;;21.15;11.20;;;16.00;99.90;;;;;;4964868;28;20059;-40
2023/10/13 02:41:51;;;;;;;17.70;11.73;;;16.10;99.90;;;;;;4978614;28;20440;-41
2023/10/13 02:44:31;;;;;;;19.67;12.00;;;16.10;99.90;;;;;;4979952;28;20070;-41
2023/10/13 02:46:59;;;;;;;21.42;11.85;;;16.10;99.90;;;;;;4975794;28;20066;-38
2023/10/13 02:49:31;;;;;;;23.00;13.13;;;16.10;99.90;;;;;;4980983;28;20133;-40
2023/10/13 02:51:59;;;;;;;20.38;12.35;;;16.10;99.90;;;;;;4975687;28;20121;-40
2023/10/13 02:54:31;;;;;;;17.23;10.98;;;16.10;99.90;;;;;;4979443;28;20077;-41
2023/10/13 02:57:03;;;;;;;20.38;12.43;;;16.10;99.90;;;;;;4976694;28;20049;-39
2023/10/13 02:59:39;;;;;;;28.00;12.52;;;16.20;99.90;;;;;;4973941;28;20492;-39
2023/10/13 03:02:29;;;;;;;18.25;11.75;;;16.20;99.90;;;;;;4959478;28;20431;-41
2023/10/13 03:05:00;;;;;;;18.95;11.57;;;16.20;99.90;;;;;;4978142;28;20058;-40
2023/10/13 03:07:28;;;;;;;20.95;11.48;;;16.20;99.90;;;;;;4979897;28;20054;-40
2023/10/13 03:10:00;;;;;;;21.00;12.45;;;16.20;99.90;;;;;;4962109;28;20147;-40
2023/10/13 03:12:34;;;;;;;25.02;11.63;;;16.20;99.90;;;;;;4985519;28;20042;-41
2023/10/13 03:15:22;;;;;;;19.05;11.60;;;16.20;99.90;;;;;;4985264;28;20563;-40
2023/10/13 03:17:50;;;;;;;21.52;11.45;;;16.10;99.90;;;;;;4984289;28;20126;-40
2023/10/13 03:20:23;;;;;;;20.23;12.10;;;16.10;99.90;;;;;;4967065;28;20097;-41
2023/10/13 03:22:54;;;;;;;18.70;11.18;;;16.10;99.90;;;;;;4963899;28;20476;-40
2023/10/13 03:30:21;;;;;;;16.75;11.43;;;16.10;99.90;;;;;;4961747;28;20508;-41
2023/10/13 03:32:54;;;;;;;18.35;11.60;;;16.00;99.90;;;;;;4969912;28;20066;-40
2023/10/13 03:35:25;;;;;;;16.80;11.43;;;16.00;99.90;;;;;;4964203;28;20479;-40
2023/10/13 03:37:52;;;;;;;20.48;11.23;;;15.90;99.90;;;;;;4976368;28;20058;-40
2023/10/13 03:43:04;;;;;;;19.27;11.98;;;15.80;99.90;;;;;;4977893;28;20069;-40
2023/10/13 03:45:41;;;;;;;19.88;10.85;;;15.70;99.90;;;;;;4976932;28;20062;-40
2023/10/13 03:48:09;;;;;;;23.30;12.35;;;15.70;99.90;;;;;;4970702;28;20055;-40
2023/10/13 03:50:47;;;;;;;22.45;11.85;;;15.60;99.90;;;;;;4984174;28;20578;-41
2023/10/13 03:53:14;;;;;;;20.85;11.77;;;15.60;99.90;;;;;;4976331;28;20117;-41
2023/10/13 03:55:47;;;;;;;18.67;11.00;;;15.50;99.90;;;;;;4981622;28;20058;-40
2023/10/13 03:58:17;;;;;;;20.08;12.07;;;15.50;99.90;;;;;;4983861;28;20451;-40
2023/10/13 04:00:44;;;;;;;21.05;11.68;;;15.50;99.90;;;;;;4981143;28;20471;-40
2023/10/13 04:03:16;;;;;;;19.48;11.55;;;15.60;99.90;;;;;;4981467;28;20242;-41
2023/10/13 04:06:00;;;;;;;19.77;11.07;;;15.50;99.90;;;;;;4981429;28;20056;-40
2023/10/13 04:19:07;;;;;;;18.65;11.07;;;15.50;99.90;;;;;;4988087;28;20074;-38
2023/10/13 04:32:38;;;;;;;18.55;11.23;;;15.40;99.90;;;;;;4890753;29;20055;-41
2023/10/13 04:35:10;;;;;;;21.38;11.13;;;15.40;99.90;;;;;;4875718;29;20431;-40
2023/10/13 04:40:24;;;;;;;20.83;11.50;;;15.50;99.90;;;;;;4890191;29;20056;-41
2023/10/13 04:54:00;;;;;;;20.77;10.60;;;15.60;99.90;;;;;;4892515;29;20076;-41
2023/10/13 05:05:21;;;;;;;19.48;10.48;;;15.70;99.90;;;;;;4841743;29;20062;-39
2023/10/13 05:44:37;;;;;;;15.40;8.68;;;15.80;99.90;;;;;;4981866;28;20054;-40
2023/10/13 05:47:46;;;;;;;20.10;9.25;;;15.80;99.90;;;;;;4988704;28;20077;-38
2023/10/13 06:28:41;;;;;;;16.98;8.48;;;16.10;99.90;;;;;;4979227;28;20043;-40
2023/10/13 06:31:22;;;;;;;13.75;7.97;;;16.10;99.90;;;;;;4963814;28;20064;-41
2023/10/13 06:33:50;;;;;;;18.25;8.88;;;16.20;99.90;;;;;;4977919;28;20047;-41
2023/10/13 06:36:18;;;;;;;13.88;8.50;;;16.20;99.90;;;;;;4977323;28;20063;-41
2023/10/13 06:38:54;;;;;;;15.38;8.70;;;16.20;99.90;;;;;;4972738;28;20097;-41
2023/10/13 06:41:30;;;;;;;17.80;8.77;;;16.20;99.90;;;;;;4977687;28;20133;-40
2023/10/13 06:44:05;;;;;;;12.40;8.48;;;16.20;99.90;;;;;;4959677;28;20155;-39
2023/10/13 06:46:34;;;;;;;18.10;8.63;;;16.40;99.90;;;;;;4981679;28;20144;-39
2023/10/13 06:49:02;;;;;;;17.48;7.90;;;16.40;99.90;;;;;;4979164;28;20076;-41
2023/10/13 06:51:37;;;;;;;13.50;9.43;;;16.30;99.90;;;;;;4976175;28;20046;-42
2023/10/13 06:54:11;;;;;;;14.07;8.63;;;16.40;99.90;;;;;;4985682;28;20042;-41
2023/10/13 06:56:41;;;;;;;15.30;8.40;;;16.30;99.90;;;;;;4992950;28;20046;-41
2023/10/13 06:59:08;;;;;;;16.75;8.57;;;16.40;99.90;;;;;;4983023;28;20066;-41
2023/10/13 07:01:38;;;;;;;25.17;14.40;;;16.50;99.90;;;;;;4979031;28;20104;-41
2023/10/13 07:04:16;;;;;;;14.80;9.15;;;16.50;99.90;;;;;;4978656;28;20456;-39
2023/10/13 07:06:48;;;;;;;13.82;8.40;;;16.50;99.90;;;;;;4975330;28;20046;-40
2023/10/13 07:12:16;;;;;;;16.70;8.75;;;16.50;99.90;;;;;;4975185;28;20053;-39
2023/10/13 07:14:53;;;;;;;14.20;7.78;;;16.60;99.90;;;;;;4973002;28;20478;-39
2023/10/13 07:17:23;;;;;;;14.32;7.88;;;16.60;99.90;;;;;;4959658;28;20039;-39
2023/10/13 07:19:57;;;;;;;14.40;7.93;;;16.70;99.90;;;;;;4977167;28;20057;-43
2023/10/13 07:22:27;;;;;;;12.85;8.05;;;16.80;99.90;;;;;;4975880;28;20074;-40
2023/10/13 07:24:58;;;;;;;15.00;8.13;;;16.80;99.90;;;;;;4977011;28;20047;-39
2023/10/13 07:27:25;;;;;;;15.50;7.88;;;16.90;99.90;;;;;;4980573;28;20514;-41
2023/10/13 07:30:13;;;;;;;15.43;7.65;;;17.00;99.90;;;;;;4974225;28;20055;-40
2023/10/13 07:32:46;;;;;;;13.43;7.95;;;17.00;99.90;;;;;;4976396;28;20042;-40
2023/10/13 07:35:17;;;;;;;42.47;23.77;;;17.10;99.90;;;;;;4977175;28;20046;-38
2023/10/13 07:37:44;;;;;;;13.02;8.15;;;17.20;99.90;;;;;;4980809;28;20046;-40
2023/10/13 07:43:03;;;;;;;18.02;8.23;;;17.20;99.90;;;;;;4980196;28;20737;-43
2023/10/13 07:45:36;;;;;;;13.50;8.68;;;17.20;99.90;;;;;;4975066;28;20094;-40
2023/10/13 07:48:11;;;;;;;13.55;8.73;;;17.40;99.90;;;;;;4978909;28;20054;-40
2023/10/13 07:50:40;;;;;;;15.65;8.82;;;17.50;99.90;;;;;;4985991;28;20150;-40
2023/10/13 07:53:20;;;;;;;25.60;15.00;;;17.50;99.90;;;;;;4982690;28;20047;-39
2023/10/13 07:55:47;;;;;;;13.98;8.98;;;17.50;99.90;;;;;;4977842;28;20391;-37
2023/10/13 07:58:14;;;;;;;13.77;7.80;;;17.70;99.90;;;;;;4978860;28;20039;-41
2023/10/13 08:08:42;;;;;;;16.38;7.75;;;17.90;99.90;;;;;;4970110;28;20047;-41
2023/10/13 08:17:07;;;;;;;14.30;8.43;;;18.10;99.90;;;;;;4977098;28;20050;-38
2023/10/13 08:19:44;;;;;;;13.80;8.48;;;18.20;99.90;;;;;;4980388;28;20054;-39
2023/10/13 08:37:36;;;;;;;16.02;7.90;;;18.30;99.90;;;;;;4976637;28;20050;-41
2023/10/13 08:53:31;;;;;;;15.57;8.30;;;19.00;99.90;;;;;;4980055;28;20047;-42
2023/10/13 09:01:39;;;;;;;11.88;7.47;;;19.30;99.90;;;;;;4982387;28;20053;-39
2023/10/13 09:07:09;;;;;;;11.88;8.05;;;19.60;99.90;;;;;;4984869;28;20055;-42
2023/10/13 09:12:35;;;;;;;20.45;13.93;;;19.90;99.90;;;;;;4981043;28;20276;-40
2023/10/13 09:17:53;;;;;;;18.73;10.95;;;20.40;99.90;;;;;;4980642;28;20070;-40
2023/10/13 09:20:35;;;;;;;16.63;9.75;;;20.50;99.90;;;;;;4983738;28;20050;-41
2023/10/13 09:23:24;;;;;;;16.02;8.57;;;20.60;99.90;;;;;;4983221;28;20074;-41
2023/10/13 09:25:58;;;;;;;14.60;8.43;;;20.60;99.90;;;;;;4981211;28;20061;-48
2023/10/13 09:28:28;;;;;;;20.23;12.18;;;20.70;99.90;;;;;;4964555;28;20054;-40
2023/10/13 09:30:59;;;;;;;15.20;8.27;;;20.70;99.90;;;;;;4981465;28;20061;-41
2023/10/13 09:33:32;;;;;;;12.52;8.23;;;20.90;99.90;;;;;;4981183;28;20451;-41
2023/10/13 09:36:00;;;;;;;12.93;8.00;;;21.10;99.90;;;;;;4979668;28;20061;-41
2023/10/13 09:38:29;;;;;;;13.38;8.18;;;21.30;99.90;;;;;;4971722;28;20077;-42
2023/10/13 09:40:57;;;;;;;15.70;8.40;;;21.50;99.90;;;;;;4977200;28;20090;-40
2023/10/13 09:43:26;;;;;;;14.18;8.90;;;21.70;99.90;;;;;;4980821;28;20388;-40
2023/10/13 09:46:01;;;;;;;14.18;8.38;;;21.70;99.90;;;;;;4978024;28;20055;-40
2023/10/13 09:48:35;;;;;;;15.80;8.50;;;21.70;99.90;;;;;;4974359;28;20057;-41
2023/10/13 09:51:08;;;;;;;14.13;7.88;;;21.70;99.90;;;;;;4977273;28;20046;-41
2023/10/13 09:53:39;;;;;;;17.20;8.55;;;21.60;99.90;;;;;;4956095;28;20050;-40
2023/10/13 09:56:51;;;;;;;13.27;7.90;;;21.70;99.90;;;;;;4982365;28;20031;-44
2023/10/13 09:59:34;;;;;;;14.88;8.45;;;21.80;99.90;;;;;;4978408;28;20566;-41
2023/10/13 10:02:08;;;;;;;12.90;8.55;;;22.00;99.90;;;;;;4978428;28;20055;-40
2023/10/13 10:04:51;;;;;;;15.00;8.00;;;22.30;99.90;;;;;;4975530;28;20256;-41
2023/10/13 10:07:29;;;;;;;15.85;8.48;;;22.50;99.90;;;;;;4971911;28;20487;-41
2023/10/13 10:10:00;;;;;;;8.90;7.90;;;22.80;99.90;;;;;;4964220;28;20117;-42
2023/10/13 10:12:46;;;;;;;14.70;7.95;;;23.10;99.90;;;;;;4979444;28;20055;-43
2023/10/13 10:15:30;;;;;;;13.18;8.27;;;23.50;99.90;;;;;;4976456;28;20124;-41
2023/10/13 10:17:58;;;;;;;15.07;8.77;;;23.60;99.90;;;;;;4972545;28;20102;-41
2023/10/13 10:20:41;;;;;;;15.93;10.30;;;24.00;99.90;;;;;;4980006;28;20047;-42
2023/10/13 10:23:21;;;;;;;13.55;8.43;;;24.20;99.90;;;;;;4977710;28;20066;-37
2023/10/13 10:25:51;;;;;;;15.15;8.38;;;24.50;99.90;;;;;;4977653;28;20058;-41
2023/10/13 10:28:19;;;;;;;12.15;8.05;;;24.50;99.90;;;;;;4938585;28;20051;-41
2023/10/13 10:30:47;;;;;;;12.60;9.30;;;24.30;99.90;;;;;;4973459;28;20042;-42
2023/10/13 10:33:18;;;;;;;12.88;8.40;;;24.20;99.90;;;;;;4971600;28;20556;-42
2023/10/13 10:35:47;;;;;;;13.18;8.30;;;24.20;99.90;;;;;;4959753;28;20047;-40
2023/10/13 10:41:05;;;;;;;11.15;8.27;;;24.10;99.90;;;;;;4977294;28;20625;-40
2023/10/13 10:43:42;;;;;;;9.55;7.70;;;24.10;99.90;;;;;;4976255;28;20061;-42
2023/10/13 10:46:14;;;;;;;10.98;7.80;;;24.00;99.90;;;;;;4976296;28;20320;-41
2023/10/13 10:48:45;;;;;;;14.52;8.38;;;24.10;99.90;;;;;;4980755;28;20129;-39
2023/10/13 10:51:16;;;;;;;9.70;8.00;;;24.50;99.90;;;;;;4985863;28;20046;-42
2023/10/13 10:53:43;;;;;;;11.93;7.28;;;24.80;99.90;;;;;;4983027;28;20073;-41
2023/10/13 10:56:24;;;;;;;14.30;7.85;;;24.90;99.90;;;;;;4981298;28;20049;-40
2023/10/13 10:58:57;;;;;;;13.13;8.10;;;25.10;99.90;;;;;;4979059;28;20043;-42
2023/10/13 11:01:33;;;;;;;13.45;7.60;;;25.30;99.90;;;;;;4961709;28;20137;-42
2023/10/13 11:04:18;;;;;;;12.20;7.85;;;25.60;99.90;;;;;;4975015;28;20055;-43
2023/10/13 11:06:55;;;;;;;13.32;7.40;;;25.70;99.90;;;;;;4973759;28;20471;-41
2023/10/13 11:09:45;;;;;;;12.00;7.97;;;26.20;99.90;;;;;;4979902;28;20133;-44
2023/10/13 11:12:15;;;;;;;12.13;8.10;;;26.20;99.90;;;;;;4980449;28;20042;-42
2023/10/13 11:14:48;;;;;;;12.65;8.38;;;26.30;99.90;;;;;;4974463;28;20061;-45
2023/10/13 11:17:33;;;;;;;12.48;8.40;;;26.50;99.90;;;;;;4978702;28;20039;-43
2023/10/13 11:20:18;;;;;;;12.15;8.10;;;26.70;99.90;;;;;;4984812;28;20077;-39
2023/10/13 11:22:47;;;;;;;13.65;9.00;;;26.90;99.90;;;;;;4978146;28;20480;-40
2023/10/13 11:25:34;;;;;;;13.02;8.68;;;27.30;99.90;;;;;;4979919;28;20039;-43
2023/10/13 11:28:20;;;;;;;12.10;7.63;;;27.50;99.90;;;;;;4975295;28;20047;-42
2023/10/13 11:30:50;;;;;;;13.40;7.80;;;27.80;99.90;;;;;;4974239;28;20502;-42
2023/10/13 11:33:23;;;;;;;14.43;8.75;;;27.90;99.90;;;;;;4979514;28;20166;-41
2023/10/13 11:38:26;;;;;;;15.30;8.07;;;28.00;99.90;;;;;;4980455;28;20061;-42
2023/10/13 11:41:14;;;;;;;14.15;9.25;;;28.20;99.90;;;;;;4977583;28;20046;-43
2023/10/13 11:43:52;;;;;;;10.10;8.60;;;28.10;99.90;;;;;;4971602;28;20050;-40
2023/10/13 11:51:47;;;;;;;13.90;8.45;;;28.40;94.90;;;;;;4977164;28;20153;-41
2023/10/13 11:54:15;;;;;;;11.07;8.07;;;28.60;92.70;;;;;;4979592;28;20066;-42
2023/10/13 11:56:44;;;;;;;13.32;8.32;;;28.30;91.70;;;;;;4985326;28;20476;-42
2023/10/13 11:59:18;;;;;;;12.68;8.15;;;28.50;90.50;;;;;;4958254;28;20043;-40
2023/10/13 12:04:51;;;;;;;16.40;8.13;;;28.20;91.30;;;;;;4986540;28;20046;-41
2023/10/13 12:07:20;;;;;;;10.80;8.43;;;28.10;88.50;;;;;;4983750;28;20050;-42
2023/10/13 12:10:03;;;;;;;11.15;7.78;;;28.10;90.60;;;;;;4992398;28;20284;-41
2023/10/13 12:12:31;;;;;;;12.30;7.55;;;28.30;90.60;;;;;;4985470;28;20061;-44
2023/10/13 12:15:09;;;;;;;15.40;7.57;;;28.40;89.60;;;;;;4989778;28;20078;-43
2023/10/13 12:17:39;;;;;;;11.93;7.35;;;28.60;87.80;;;;;;4990071;28;20069;-44
2023/10/13 12:20:10;;;;;;;14.50;7.80;;;29.40;89.10;;;;;;4989083;28;20038;-42
2023/10/13 12:22:39;;;;;;;12.00;7.80;;;29.80;86.00;;;;;;4986094;28;20051;-43
2023/10/13 12:25:25;;;;;;;16.50;8.35;;;30.70;87.10;;;;;;4976709;28;20082;-41
2023/10/13 12:27:56;;;;;;;10.48;7.10;;;31.70;80.30;;;;;;4976081;28;20061;-43
2023/10/13 12:30:48;;;;;;;11.60;7.97;;;32.30;77.40;;;;;;4984037;28;20061;-42
2023/10/13 12:33:24;;;;;;;14.68;7.80;;;33.20;73.80;;;;;;4981366;28;20118;-45
2023/10/13 12:36:03;;;;;;;10.50;8.18;;;32.90;71.60;;;;;;4980810;28;20085;-44
2023/10/13 12:52:15;;;;;;;11.75;8.15;;;29.80;73.10;;;;;;4982283;28;20050;-43
2023/10/13 12:55:01;;;;;;;11.43;7.85;;;29.20;76.00;;;;;;4984835;28;20078;-43
2023/10/13 12:57:28;;;;;;;10.90;7.93;;;28.90;76.30;;;;;;4992632;28;20089;-42
2023/10/13 12:59:56;;;;;;;8.98;7.88;;;29.40;75.20;;;;;;4986173;28;20130;-43
2023/10/13 13:02:24;;;;;;;15.60;8.50;;;29.60;74.60;;;;;;4987479;28;20082;-43
2023/10/13 13:05:02;;;;;;;15.35;7.97;;;29.30;74.80;;;;;;4978230;28;20058;-41
2023/10/13 13:07:30;;;;;;;12.57;8.30;;;29.30;76.70;;;;;;4976463;28;20298;-42
2023/10/13 13:10:01;;;;;;;16.20;8.60;;;30.20;75.20;;;;;;4979257;28;20081;-42
2023/10/13 13:12:28;;;;;;;10.02;8.55;;;31.40;72.90;;;;;;4983140;28;20046;-42
2023/10/13 13:14:55;;;;;;;11.95;7.82;;;32.70;70.50;;;;;;4982222;28;20066;-41
2023/10/13 13:17:24;;;;;;;11.05;7.40;;;33.40;68.80;;;;;;4980507;28;20054;-43
2023/10/13 13:19:51;;;;;;;12.52;7.90;;;33.70;66.50;;;;;;4982337;28;20133;-41
2023/10/13 13:22:20;;;;;;;16.10;8.10;;;34.50;64.90;;;;;;4978468;28;20093;-42
2023/10/13 13:24:47;;;;;;;15.05;8.20;;;35.10;62.60;;;;;;4973404;28;20118;-41
2023/10/13 13:27:22;;;;;;;12.07;7.50;;;36.20;60.70;;;;;;4971530;28;20063;-43
2023/10/13 13:29:49;;;;;;;9.75;7.75;;;36.10;60.40;;;;;;4974483;28;20097;-41
2023/10/13 13:32:23;;;;;;;11.20;7.85;;;37.10;58.30;;;;;;4978518;28;20042;-42
2023/10/13 13:34:58;;;;;;;11.90;8.07;;;36.90;57.30;;;;;;4971424;28;20655;-43
2023/10/13 13:37:27;;;;;;;9.10;7.63;;;37.00;56.50;;;;;;4978958;28;20041;-43
2023/10/13 13:39:55;;;;;;;11.60;8.00;;;37.50;55.40;;;;;;4977765;28;20069;-47
2023/10/13 13:42:22;;;;;;;10.30;7.50;;;38.80;55.20;;;;;;4980166;28;20069;-42
2023/10/13 13:44:49;;;;;;;10.95;7.82;;;39.00;51.70;;;;;;4969024;28;20073;-41
2023/10/13 13:47:17;;;;;;;12.23;7.65;;;38.90;51.60;;;;;;4976083;28;20050;-43
2023/10/13 13:49:51;;;;;;;17.30;15.38;;;39.10;50.70;;;;;;4968673;28;20105;-44
2023/10/13 13:52:31;;;;;;;12.82;7.78;;;39.70;50.50;;;;;;4968576;28;20043;-42
2023/10/13 13:55:03;;;;;;;11.18;7.57;;;40.00;49.00;;;;;;4956934;28;20126;-47
2023/10/13 13:57:30;;;;;;;8.10;7.30;;;40.30;48.30;;;;;;4973237;28;20057;-47
2023/10/13 13:59:57;;;;;;;12.88;8.00;;;40.30;48.00;;;;;;4975628;28;20053;-48
2023/10/13 14:02:26;;;;;;;10.23;7.95;;;39.90;48.10;;;;;;4969718;28;20101;-47
2023/10/13 14:04:54;;;;;;;11.68;8.05;;;40.80;46.80;;;;;;4969075;28;20078;-48
2023/10/13 14:07:24;;;;;;;13.07;7.07;;;40.00;46.70;;;;;;4971134;28;20463;-50
2023/10/13 14:09:51;;;;;;;12.90;7.60;;;39.80;47.20;;;;;;4977545;28;20046;-46
2023/10/13 14:12:29;;;;;;;9.15;6.70;;;40.80;46.90;;;;;;4972550;28;20071;-49
2023/10/13 14:14:57;;;;;;;10.55;7.28;;;41.60;45.60;;;;;;4967617;28;20076;-51
2023/10/13 14:17:33;;;;;;;9.68;7.03;;;41.40;45.00;;;;;;4970854;28;20046;-47
2023/10/13 14:20:00;;;;;;;10.60;7.00;;;42.10;44.90;;;;;;4977383;28;20051;-50
2023/10/13 14:22:28;;;;;;;11.95;9.60;;;40.90;44.80;;;;;;4979334;28;20511;-48
2023/10/13 14:24:55;;;;;;;9.68;6.88;;;39.50;46.10;;;;;;4952905;28;20047;-48
2023/10/13 14:27:23;;;;;;;11.35;7.78;;;39.10;45.90;;;;;;4976165;28;20047;-44
2023/10/13 14:29:54;;;;;;;10.20;6.90;;;39.00;46.40;;;;;;4971048;28;20047;-46
2023/10/13 14:32:24;;;;;;;10.88;7.00;;;40.00;45.40;;;;;;4972118;28;20575;-44
2023/10/13 14:34:56;;;;;;;9.95;7.38;;;40.40;44.40;;;;;;4967635;28;20134;-47
2023/10/13 14:37:31;;;;;;;11.50;6.30;;;39.80;44.90;;;;;;4970517;28;20042;-44
2023/10/13 14:39:59;;;;;;;8.80;7.43;;;39.50;45.00;;;;;;4975313;28;20053;-49
2023/10/13 14:42:35;;;;;;;9.73;6.13;;;38.50;45.80;;;;;;4964611;28;20035;-48
2023/10/13 14:45:11;;;;;;;11.90;7.13;;;36.70;47.10;;;;;;4961486;28;20046;-47
2023/10/13 14:47:40;;;;;;;11.38;7.43;;;35.50;48.90;;;;;;4969831;28;20531;-47
2023/10/13 14:50:19;;;;;;;12.55;6.43;;;35.90;48.60;;;;;;4972938;28;20058;-50
2023/10/13 14:52:49;;;;;;;10.60;6.50;;;34.50;49.30;;;;;;4953545;28;20054;-42
2023/10/13 14:55:21;;;;;;;11.30;6.15;;;33.20;50.90;;;;;;4976148;28;20043;-42
2023/10/13 14:57:49;;;;;;;11.32;6.30;;;31.60;52.60;;;;;;4978269;28;20393;-41
2023/10/13 15:00:24;;;;;;;12.65;7.10;;;31.00;53.20;;;;;;4964693;28;20049;-40
2023/10/13 15:02:54;;;;;;;12.70;7.30;;;30.20;55.10;;;;;;4966700;28;20046;-40
2023/10/13 15:05:22;;;;;;;10.00;7.63;;;29.60;56.70;;;;;;4973038;28;20051;-44
2023/10/13 15:07:51;;;;;;;9.95;6.93;;;29.50;57.10;;;;;;4968736;28;20085;-42
2023/10/13 15:10:18;;;;;;;21.20;13.77;;;29.70;57.20;;;;;;4974716;28;20046;-42
2023/10/13 15:12:46;;;;;;;11.93;7.45;;;29.80;57.40;;;;;;4969289;28;20629;-45
2023/10/13 15:15:13;;;;;;;11.88;7.07;;;30.90;56.10;;;;;;4977388;28;20038;-41
2023/10/13 15:17:40;;;;;;;12.95;6.68;;;31.90;55.30;;;;;;4977056;28;20438;-40
2023/10/13 15:20:18;;;;;;;9.82;6.68;;;32.60;54.10;;;;;;4967467;28;20093;-41
2023/10/13 15:22:49;;;;;;;9.25;7.00;;;33.00;53.60;;;;;;4969896;28;20050;-42
2023/10/13 15:25:31;;;;;;;12.43;6.75;;;32.70;54.10;;;;;;4972987;28;20053;-41
2023/10/13 15:28:05;;;;;;;13.45;7.20;;;33.00;53.30;;;;;;4971848;28;20448;-40
2023/10/13 15:30:44;;;;;;;10.63;6.22;;;33.10;53.20;;;;;;4973468;28;20074;-42
2023/10/13 15:33:12;;;;;;;13.85;7.32;;;33.60;52.80;;;;;;4971318;28;20047;-42
2023/10/13 15:35:45;;;;;;;14.45;6.68;;;34.30;52.30;;;;;;4972537;28;20397;-46
2023/10/13 15:38:13;;;;;;;13.68;7.07;;;34.20;51.80;;;;;;4974864;28;20551;-43
2023/10/13 15:40:44;;;;;;;14.07;6.63;;;33.90;52.40;;;;;;4975064;28;20046;-39
2023/10/13 15:43:12;;;;;;;12.25;7.15;;;34.40;51.90;;;;;;4977931;28;20042;-42
2023/10/13 15:45:42;;;;;;;10.77;6.57;;;34.40;51.70;;;;;;4974007;28;20146;-39
2023/10/13 15:48:11;;;;;;;17.65;7.95;;;33.70;52.50;;;;;;4979856;28;20162;-42
2023/10/13 15:50:41;;;;;;;16.00;6.90;;;33.40;52.90;;;;;;4978060;28;20518;-39
2023/10/13 15:53:12;;;;;;;11.27;7.57;;;33.80;52.50;;;;;;4975146;28;20074;-39
2023/10/13 15:55:40;;;;;;;;;;;33.70;52.80;;;;;;4982078;28;20538;-41
2023/10/13 15:58:07;;;;;;;10.20;6.70;;;33.30;53.10;;;;;;4978625;28;19936;-41
2023/10/13 16:00:36;;;;;;;10.90;6.80;;;32.70;53.70;;;;;;4980450;28;20058;-42
2023/10/13 16:03:10;;;;;;;15.02;7.00;;;32.30;54.10;;;;;;4980148;28;20074;-42
2023/10/13 16:05:42;;;;;;;14.13;7.15;;;31.10;55.20;;;;;;4978196;28;20054;-43
2023/10/13 16:08:13;;;;;;;15.95;10.73;;;30.50;55.80;;;;;;4977755;28;20133;-41
2023/10/13 16:10:41;;;;;;;17.90;8.45;;;29.90;57.10;;;;;;4965478;28;20066;-42
2023/10/13 16:13:15;;;;;;;13.15;7.95;;;29.50;57.70;;;;;;4981588;28;20039;-39
2023/10/13 16:15:47;;;;;;;14.68;8.15;;;29.10;59.10;;;;;;4981013;28;20140;-43
2023/10/13 16:18:20;;;;;;;13.35;8.25;;;28.40;59.40;;;;;;4982812;28;20211;-41
2023/10/13 16:20:50;;;;;;;15.45;7.97;;;27.80;60.60;;;;;;4979281;28;20047;-40
2023/10/13 16:23:18;;;;;;;13.43;7.72;;;27.30;61.70;;;;;;4981446;28;20051;-43
2023/10/13 16:25:46;;;;;;;14.25;8.25;;;26.80;62.70;;;;;;4973588;28;20097;-42
2023/10/13 16:28:13;;;;;;;13.80;8.20;;;26.30;63.70;;;;;;4980817;28;20054;-42
2023/10/13 16:30:40;;;;;;;13.77;7.78;;;25.70;64.80;;;;;;4987147;28;20046;-42
2023/10/13 16:33:08;;;;;;;21.63;7.97;;;25.30;66.00;;;;;;4980729;28;20090;-39
2023/10/13 16:35:35;;;;;;;13.93;8.48;;;25.00;66.80;;;;;;4982106;28;20133;-39
2023/10/13 16:38:06;;;;;;;13.82;7.55;;;24.70;67.70;;;;;;4967124;28;20150;-43
2023/10/13 16:40:34;;;;;;;16.02;7.45;;;24.40;68.70;;;;;;4979735;28;20117;-42
2023/10/13 16:43:01;;;;;;;16.35;8.18;;;24.20;69.50;;;;;;4973324;28;20082;-40
2023/10/13 16:45:31;;;;;;;19.38;8.57;;;24.00;70.00;;;;;;4982887;28;20062;-42